createdAt,value
2018-01-22T00:00:19.280Z,75.00
2018-01-22T00:02:49.745Z,75.00
2018-01-22T00:05:19.374Z,75.00
2018-01-22T00:07:48.792Z,74.90
2018-01-22T00:10:18.282Z,75.00
2018-01-22T00:12:48.933Z,75.10
2018-01-22T00:15:18.469Z,75.10
2018-01-22T00:17:49.783Z,75.10
2018-01-22T00:20:19.834Z,75.40
2018-01-22T00:22:49.083Z,75.50
2018-01-22T00:25:18.531Z,75.40
2018-01-22T00:27:48.448Z,75.40
2018-01-22T00:30:17.906Z,75.40
2018-01-22T00:32:47.856Z,75.80
2018-01-22T00:35:17.482Z,75.80
2018-01-22T00:37:47.775Z,75.80
2018-01-22T00:40:18.112Z,76.00
2018-01-22T00:42:48.009Z,76.10
2018-01-22T00:45:18.045Z,76.30
2018-01-22T00:47:48.244Z,76.40
2018-01-22T00:50:18.232Z,76.40
2018-01-22T00:52:48.408Z,76.70
2018-01-22T00:55:17.826Z,76.80
2018-01-22T00:57:47.682Z,77.10
2018-01-22T01:00:17.480Z,77.10
2018-01-22T01:02:47.561Z,77.20
2018-01-22T01:05:16.904Z,77.30
2018-01-22T01:07:46.590Z,77.30
2018-01-22T01:10:15.909Z,77.30
2018-01-22T01:12:45.600Z,77.50
2018-01-22T01:15:15.863Z,77.50
2018-01-22T01:17:45.695Z,77.50
2018-01-22T01:20:15.931Z,77.60
2018-01-22T01:22:45.920Z,77.70
2018-01-22T01:25:15.411Z,77.70
2018-01-22T01:27:45.904Z,77.70
2018-01-22T01:30:17.138Z,77.60
2018-01-22T01:32:46.976Z,77.60
2018-01-22T01:35:17.477Z,77.50
2018-01-22T01:37:47.300Z,77.50
2018-01-22T01:40:16.588Z,77.60
2018-01-22T01:42:46.078Z,77.60
2018-01-22T01:45:15.488Z,77.70
2018-01-22T01:47:44.875Z,77.80
2018-01-22T01:50:14.454Z,77.90
2018-01-22T01:52:44.246Z,77.80
2018-01-22T01:55:13.664Z,77.80
2018-01-22T01:57:43.863Z,77.80
2018-01-22T02:00:13.331Z,77.80
2018-01-22T02:02:43.119Z,77.90
2018-01-22T02:05:13.328Z,77.90
2018-01-22T02:07:42.680Z,77.90
2018-01-22T02:10:12.375Z,78.10
2018-01-22T02:12:41.998Z,78.10
2018-01-22T02:15:11.424Z,78.00
2018-01-22T02:17:40.704Z,78.20
2018-01-22T02:20:10.181Z,78.30
2018-01-22T02:22:39.728Z,78.50
2018-01-22T02:25:09.184Z,78.50
2018-01-22T02:27:38.939Z,78.60
2018-01-22T02:30:08.702Z,78.60
2018-01-22T02:32:38.245Z,78.70
2018-01-22T02:35:08.341Z,78.80
2018-01-22T02:37:38.285Z,78.80
2018-01-22T02:40:08.429Z,78.80
2018-01-22T02:42:37.918Z,78.90
2018-01-22T02:45:07.681Z,78.90
2018-01-22T02:47:37.374Z,78.90
2018-01-22T02:50:07.108Z,78.90
2018-01-22T02:52:37.575Z,78.90
2018-01-22T02:55:06.899Z,79.00
2018-01-22T02:57:36.272Z,79.10
2018-01-22T03:00:06.298Z,79.10
2018-01-22T03:02:35.796Z,79.10
2018-01-22T03:05:05.270Z,79.10
2018-01-22T03:07:34.856Z,79.20
2018-01-22T03:10:04.545Z,79.30
2018-01-22T03:12:33.973Z,79.30
2018-01-22T03:15:03.744Z,79.20
2018-01-22T03:17:33.509Z,79.30
2018-01-22T03:20:03.517Z,79.30
2018-01-22T03:22:33.764Z,79.30
2018-01-22T03:25:03.194Z,79.30
2018-01-22T03:27:32.698Z,79.30
2018-01-22T03:30:03.041Z,79.50
2018-01-22T03:32:32.480Z,79.40
2018-01-22T03:35:02.220Z,80.00
2018-01-22T03:37:31.522Z,80.00
2018-01-22T03:40:00.828Z,79.80
2018-01-22T03:42:30.517Z,79.70
2018-01-22T03:45:00.140Z,79.60
2018-01-22T03:47:29.460Z,79.60
2018-01-22T03:49:58.756Z,79.60
2018-01-22T03:52:28.082Z,79.60
2018-01-22T03:54:57.414Z,79.70
2018-01-22T03:57:26.844Z,79.60
2018-01-22T03:59:57.643Z,79.60
2018-01-22T04:02:27.437Z,79.60
2018-01-22T04:04:56.984Z,79.60
2018-01-22T04:07:26.271Z,79.60
2018-01-22T04:09:56.032Z,79.60
2018-01-22T04:12:25.756Z,79.60
2018-01-22T04:14:55.554Z,79.70
2018-01-22T04:17:25.384Z,79.60
2018-01-22T04:19:54.717Z,79.70
2018-01-22T04:22:24.189Z,79.60
2018-01-22T04:24:54.093Z,79.60
2018-01-22T04:27:23.900Z,79.70
2018-01-22T04:29:53.321Z,79.70
2018-01-22T04:32:22.749Z,79.60
2018-01-22T04:34:52.151Z,79.70
2018-01-22T04:37:21.841Z,79.70
2018-01-22T04:39:51.711Z,79.80
2018-01-22T04:42:21.321Z,79.90
2018-01-22T04:44:51.009Z,79.90
2018-01-22T04:47:20.689Z,80.00
2018-01-22T04:49:50.461Z,79.90
2018-01-22T04:52:20.751Z,79.90
2018-01-22T04:54:50.764Z,79.80
2018-01-22T04:57:21.036Z,79.90
2018-01-22T04:59:50.420Z,79.90
2018-01-22T05:02:19.964Z,79.90
2018-01-22T05:04:49.591Z,79.80
2018-01-22T05:07:19.058Z,79.80
2018-01-22T05:09:48.514Z,79.70
2018-01-22T05:12:18.762Z,79.70
2018-01-22T05:14:48.595Z,79.70
2018-01-22T05:17:18.144Z,79.70
2018-01-22T05:19:47.400Z,79.70
2018-01-22T05:22:16.922Z,79.70
2018-01-22T05:24:46.353Z,79.80
2018-01-22T05:27:15.622Z,79.80
2018-01-22T05:29:45.830Z,79.80
2018-01-22T05:32:15.678Z,79.90
2018-01-22T05:34:45.068Z,79.90
2018-01-22T05:37:14.542Z,79.70
2018-01-22T05:39:43.995Z,79.70
2018-01-22T05:42:13.581Z,79.80
2018-01-22T05:44:43.189Z,79.80
2018-01-22T05:47:13.204Z,79.80
2018-01-22T05:49:43.565Z,79.80
2018-01-22T05:52:13.167Z,79.80
2018-01-22T05:54:42.724Z,79.80
2018-01-22T05:57:12.231Z,79.90
2018-01-22T05:59:41.625Z,79.90
2018-01-22T06:02:10.859Z,79.70
2018-01-22T06:04:40.614Z,79.80
2018-01-22T06:07:10.110Z,79.80
2018-01-22T06:09:39.639Z,79.80
2018-01-22T06:12:09.207Z,80.00
2018-01-22T06:14:38.647Z,80.00
2018-01-22T06:17:08.228Z,79.90
2018-01-22T06:19:38.292Z,79.90
2018-01-22T06:22:07.759Z,79.90
2018-01-22T06:24:37.584Z,80.00
2018-01-22T06:27:07.724Z,80.00
2018-01-22T06:29:37.098Z,79.90
2018-01-22T06:32:07.572Z,80.10
2018-01-22T06:34:37.882Z,80.10
2018-01-22T06:37:07.294Z,80.20
2018-01-22T06:39:37.104Z,80.20
2018-01-22T06:42:06.849Z,80.10
2018-01-22T06:44:36.325Z,80.00
2018-01-22T06:47:05.773Z,80.00
2018-01-22T06:49:35.258Z,79.90
2018-01-22T06:52:04.732Z,79.90
2018-01-22T06:54:34.174Z,79.70
2018-01-22T06:57:03.617Z,79.70
2018-01-22T06:59:33.579Z,79.50
2018-01-22T07:02:03.184Z,79.40
2018-01-22T07:04:32.463Z,79.40
2018-01-22T07:07:01.984Z,79.60
2018-01-22T07:09:31.609Z,79.60
2018-01-22T07:12:01.014Z,79.60
2018-01-22T07:14:30.691Z,79.70
2018-01-22T07:17:00.049Z,79.70
2018-01-22T07:19:29.427Z,79.80
2018-01-22T07:21:58.839Z,79.80
2018-01-22T07:24:28.225Z,79.80
2018-01-22T07:26:58.212Z,79.70
2018-01-22T07:29:27.809Z,79.70
2018-01-22T07:31:57.096Z,79.70
2018-01-22T07:34:26.869Z,80.00
2018-01-22T07:36:56.724Z,80.00
2018-01-22T07:39:26.481Z,80.10
2018-01-22T07:41:56.057Z,80.10
2018-01-22T07:44:25.737Z,80.10
2018-01-22T07:46:55.245Z,80.10
2018-01-22T07:49:24.756Z,80.00
2018-01-22T07:51:54.280Z,80.00
2018-01-22T07:54:23.861Z,79.90
2018-01-22T07:56:54.148Z,80.00
2018-01-22T07:59:23.402Z,80.00
2018-01-22T08:01:53.115Z,80.20
2018-01-22T08:04:23.046Z,80.10
2018-01-22T08:06:52.599Z,80.10
2018-01-22T08:09:22.148Z,80.00
2018-01-22T08:11:51.898Z,80.00
2018-01-22T08:14:21.560Z,80.00
2018-01-22T08:16:51.610Z,80.10
2018-01-22T08:19:22.010Z,80.10
2018-01-22T08:21:51.229Z,80.00
2018-01-22T08:24:20.601Z,80.00
2018-01-22T08:26:49.938Z,80.10
2018-01-22T08:29:19.731Z,80.20
2018-01-22T08:31:49.542Z,80.30
2018-01-22T08:34:20.637Z,80.30
2018-01-22T08:36:50.020Z,80.30
2018-01-22T08:39:19.866Z,80.50
2018-01-22T08:41:49.435Z,80.50
2018-01-22T08:44:19.661Z,79.80
2018-01-22T08:46:48.861Z,79.80
2018-01-22T08:49:18.797Z,79.90
2018-01-22T08:51:48.485Z,79.80
2018-01-22T08:54:18.220Z,79.90
2018-01-22T08:56:47.955Z,79.80
2018-01-22T08:59:17.190Z,79.80
2018-01-22T09:01:46.522Z,79.90
2018-01-22T09:04:16.252Z,79.90
2018-01-22T09:06:46.262Z,79.80
2018-01-22T09:09:17.809Z,79.30
2018-01-22T09:11:47.666Z,79.50
2018-01-22T09:14:17.470Z,79.50
2018-01-22T09:16:46.944Z,79.70
2018-01-22T09:19:16.567Z,79.60
2018-01-22T09:21:46.434Z,79.50
2018-01-22T09:24:15.991Z,79.50
2018-01-22T09:26:45.951Z,79.60
2018-01-22T09:29:15.407Z,79.60
2018-01-22T09:31:45.494Z,79.50
2018-01-22T09:34:15.243Z,79.50
2018-01-22T09:36:45.267Z,79.40
2018-01-22T09:39:15.299Z,79.60
2018-01-22T09:41:44.925Z,79.50
2018-01-22T09:44:14.231Z,79.50
2018-01-22T09:46:44.170Z,79.40
2018-01-22T09:49:13.943Z,79.80
2018-01-22T09:51:44.073Z,79.80
2018-01-22T09:54:13.379Z,79.80
2018-01-22T09:56:42.999Z,79.70
2018-01-22T09:59:12.402Z,79.70
2018-01-22T10:01:42.688Z,79.70
2018-01-22T10:04:12.744Z,79.80
2018-01-22T10:06:43.104Z,79.80
2018-01-22T10:09:12.535Z,79.90
2018-01-22T10:11:42.039Z,79.70
2018-01-22T10:14:11.876Z,79.50
2018-01-22T10:16:41.392Z,79.40
2018-01-22T10:19:11.661Z,78.80
2018-01-22T10:21:41.902Z,78.80
2018-01-22T10:24:11.657Z,78.50
2018-01-22T10:26:41.569Z,78.40
2018-01-22T10:29:11.606Z,78.50
2018-01-22T10:31:41.649Z,78.50
2018-01-22T10:34:10.986Z,78.60
2018-01-22T10:36:42.385Z,78.70
2018-01-22T10:39:12.152Z,78.10
2018-01-22T10:41:41.640Z,78.10
2018-01-22T10:53:12.970Z,78.40
2018-01-22T10:55:42.712Z,78.40
2018-01-22T10:58:13.373Z,78.40
2018-01-22T11:00:43.078Z,78.40
2018-01-22T11:03:13.146Z,78.40
2018-01-22T11:05:42.407Z,78.40
2018-01-22T11:08:11.988Z,78.30
2018-01-22T11:10:41.445Z,78.10
2018-01-22T11:13:11.702Z,78.10
2018-01-22T11:15:47.073Z,77.90
2018-01-22T11:18:17.049Z,77.90
2018-01-22T11:20:47.455Z,77.50
2018-01-22T11:23:17.865Z,77.50
2018-01-22T11:25:47.815Z,77.50
2018-01-22T11:28:18.059Z,77.50
2018-01-22T11:30:47.978Z,77.70
2018-01-22T11:33:17.313Z,77.70
2018-01-22T11:35:46.802Z,77.70
2018-01-22T11:38:16.485Z,77.60
2018-01-22T11:40:45.836Z,77.60
2018-01-22T11:43:15.353Z,77.80
2018-01-22T11:45:44.873Z,77.60
2018-01-22T11:48:15.174Z,77.60
2018-01-22T11:50:45.169Z,77.70
2018-01-22T11:53:15.308Z,78.10
2018-01-22T11:55:46.725Z,78.20
2018-01-22T11:58:16.333Z,78.30
2018-01-22T12:00:46.934Z,78.10
2018-01-22T12:03:16.523Z,78.20
2018-01-22T12:05:46.687Z,78.40
2018-01-22T12:08:16.058Z,78.40
2018-01-22T12:10:45.752Z,78.40
2018-01-22T12:13:15.574Z,78.60
2018-01-22T12:15:47.277Z,78.80
2018-01-22T12:18:16.763Z,78.80
2018-01-22T12:20:46.494Z,79.00
2018-01-22T12:23:16.205Z,79.10
2018-01-22T12:25:45.485Z,79.10
2018-01-22T12:28:15.233Z,79.20
2018-01-22T12:30:44.496Z,79.40
2018-01-22T12:33:13.962Z,79.30
2018-01-22T12:35:44.400Z,79.40
2018-01-22T12:38:13.824Z,79.20
2018-01-22T12:40:43.561Z,78.80
2018-01-22T12:43:13.009Z,78.80
2018-01-22T12:45:42.637Z,78.70
2018-01-22T12:48:12.560Z,78.30
2018-01-22T12:50:42.288Z,78.50
2018-01-22T12:53:12.834Z,78.50
2018-01-22T12:55:42.580Z,78.50
2018-01-22T12:58:12.579Z,78.50
2018-01-22T13:00:41.930Z,78.40
2018-01-22T13:03:11.324Z,78.20
2018-01-22T13:05:40.881Z,78.50
2018-01-22T13:08:11.109Z,78.30
2018-01-22T13:10:40.683Z,78.30
2018-01-22T13:13:10.405Z,78.20
2018-01-22T13:15:40.120Z,78.10
2018-01-22T13:18:09.848Z,78.20
2018-01-22T13:20:39.760Z,77.90
2018-01-22T13:23:10.903Z,77.80
2018-01-22T13:25:41.741Z,77.80
2018-01-22T13:28:13.221Z,77.60
2018-01-22T13:30:42.787Z,77.60
2018-01-22T13:33:13.823Z,77.50
2018-01-22T13:35:43.438Z,77.50
2018-01-22T13:38:13.396Z,77.50
2018-01-22T13:40:48.955Z,77.70
2018-01-22T13:43:18.712Z,77.90
2018-01-22T13:45:48.159Z,77.70
2018-01-22T13:48:17.634Z,77.80
2018-01-22T13:50:47.071Z,77.80
2018-01-22T13:53:16.787Z,78.20
2018-01-22T13:55:47.987Z,78.30
2018-01-22T13:58:17.376Z,78.40
2018-01-22T14:00:46.767Z,78.60
2018-01-22T14:03:16.152Z,78.60
2018-01-22T14:05:45.692Z,78.50
2018-01-22T14:08:15.352Z,78.50
2018-01-22T14:10:44.691Z,78.70
2018-01-22T14:13:14.385Z,78.80
2018-01-22T14:15:43.617Z,79.10
2018-01-22T14:18:12.861Z,79.20
2018-01-22T14:20:42.275Z,79.10
2018-01-22T14:23:12.050Z,79.30
2018-01-22T14:25:41.383Z,79.30
2018-01-22T14:28:11.028Z,79.30
2018-01-22T14:30:41.608Z,79.30
2018-01-22T14:33:11.505Z,79.30
2018-01-22T14:35:41.292Z,79.40
2018-01-22T14:38:11.697Z,79.50
2018-01-22T14:40:41.649Z,79.50
2018-01-22T14:43:11.899Z,79.60
2018-01-22T14:45:42.930Z,79.60
2018-01-22T14:48:12.864Z,79.50
2018-01-22T14:50:42.267Z,79.40
2018-01-22T14:53:11.865Z,79.40
2018-01-22T14:55:41.183Z,79.50
2018-01-22T14:58:11.406Z,79.50
2018-01-22T15:00:41.898Z,79.60
2018-01-22T15:03:12.569Z,79.50
2018-01-22T15:05:42.028Z,79.70
2018-01-22T15:08:11.556Z,79.70
2018-01-22T15:10:42.223Z,79.70
2018-01-22T15:13:11.462Z,79.60
2018-01-22T15:15:43.084Z,79.70
2018-01-22T15:18:13.918Z,80.10
2018-01-22T15:20:45.717Z,80.00
2018-01-22T15:23:16.564Z,80.10
2018-01-22T15:25:47.452Z,80.20
2018-01-22T15:28:17.102Z,80.30
2018-01-22T15:30:47.564Z,80.40
2018-01-22T15:33:18.475Z,80.40
2018-01-22T15:35:48.428Z,80.40
2018-01-22T15:38:18.063Z,80.50
2018-01-22T15:40:48.665Z,80.50
2018-01-22T15:43:20.238Z,80.60
2018-01-22T15:45:52.761Z,80.60
2018-01-22T15:48:23.017Z,80.70
2018-01-22T15:50:52.857Z,80.60
2018-01-22T15:53:22.851Z,80.60
2018-01-22T15:55:53.597Z,80.70
2018-01-22T15:58:24.119Z,80.60
2018-01-22T16:01:04.142Z,80.70
2018-01-22T16:03:34.469Z,80.70
2018-01-22T16:06:05.443Z,80.90
2018-01-22T16:08:35.367Z,81.10
2018-01-22T16:11:05.158Z,81.10
2018-01-22T16:13:35.794Z,81.20
2018-01-22T16:16:06.119Z,81.20
2018-01-22T16:18:37.114Z,81.30
2018-01-22T16:21:06.691Z,81.40
2018-01-22T16:23:36.951Z,81.40
2018-01-22T16:26:07.396Z,81.40
2018-01-22T16:28:37.734Z,81.40
2018-01-22T16:31:07.562Z,81.30
2018-01-22T16:33:37.207Z,81.40
2018-01-22T16:36:07.670Z,81.30
2018-01-22T16:38:37.491Z,81.20
2018-01-22T16:41:07.479Z,81.30
2018-01-22T16:43:37.156Z,81.30
2018-01-22T16:46:07.489Z,81.30
2018-01-22T16:48:37.324Z,81.30
2018-01-22T16:51:09.549Z,81.30
2018-01-22T16:53:39.077Z,81.30
2018-01-22T16:56:08.486Z,81.20
2018-01-22T16:58:38.961Z,81.10
2018-01-22T17:01:08.404Z,81.10
2018-01-22T17:03:41.136Z,81.10
2018-01-22T17:06:11.501Z,81.10
2018-01-22T17:08:41.395Z,81.20
2018-01-22T17:11:10.967Z,81.30
2018-01-22T17:13:41.338Z,81.40
2018-01-22T17:16:11.581Z,81.60
2018-01-22T17:18:43.131Z,82.10
2018-01-22T17:21:14.375Z,82.30
2018-01-22T17:23:45.448Z,82.50
2018-01-22T17:26:15.209Z,82.50
2018-01-22T17:28:44.799Z,82.40
2018-01-22T17:31:14.530Z,82.40
2018-01-22T17:33:44.248Z,82.40
2018-01-22T17:36:15.106Z,82.40
2018-01-22T17:38:44.668Z,82.30
2018-01-22T17:41:14.717Z,82.20
2018-01-22T17:43:44.102Z,82.20
2018-01-22T17:46:13.962Z,81.90
2018-01-22T17:48:43.403Z,81.80
2018-01-22T17:51:12.967Z,81.70
2018-01-22T17:53:42.254Z,81.50
2018-01-22T17:56:11.494Z,81.50
2018-01-22T17:58:41.572Z,81.40
2018-01-22T18:01:12.310Z,81.30
2018-01-22T18:03:42.429Z,81.10
2018-01-22T18:06:12.269Z,81.10
2018-01-22T18:08:41.724Z,80.80
2018-01-22T18:11:11.169Z,80.70
2018-01-22T18:13:40.584Z,80.50
2018-01-22T18:16:10.504Z,80.50
2018-01-22T18:18:40.150Z,80.50
2018-01-22T18:21:09.511Z,80.40
2018-01-22T18:23:38.915Z,80.30
2018-01-22T18:26:09.245Z,80.00
2018-01-22T18:28:38.749Z,80.00
2018-01-22T18:31:09.099Z,79.80
2018-01-22T18:33:38.394Z,79.80
2018-01-22T18:36:09.587Z,79.80
2018-01-22T18:38:39.165Z,79.90
2018-01-22T18:41:08.393Z,79.80
2018-01-22T18:43:37.798Z,79.90
2018-01-22T18:46:07.333Z,79.50
2018-01-22T18:48:37.061Z,79.40
2018-01-22T18:51:07.091Z,79.10
2018-01-22T18:53:37.265Z,79.10
2018-01-22T18:56:07.234Z,78.80
2018-01-22T18:58:37.066Z,78.80
2018-01-22T19:01:06.575Z,78.80
2018-01-22T19:03:36.795Z,78.80
2018-01-22T19:06:06.197Z,78.70
2018-01-22T19:08:35.981Z,78.70
2018-01-22T19:11:06.027Z,78.20
2018-01-22T19:13:35.727Z,78.20
2018-01-22T19:16:05.625Z,77.90
2018-01-22T19:18:35.069Z,77.60
2018-01-22T19:21:05.505Z,77.70
2018-01-22T19:23:35.098Z,77.70
2018-01-22T19:26:04.318Z,77.80
2018-01-22T19:28:34.663Z,77.70
2018-01-22T19:31:04.555Z,77.60
2018-01-22T19:33:34.186Z,77.90
2018-01-22T19:36:04.263Z,77.90
2018-01-22T19:38:34.333Z,78.10
2018-01-22T19:41:03.904Z,78.00
2018-01-22T19:43:34.252Z,78.10
2018-01-22T19:46:03.630Z,78.10
2018-01-22T19:48:34.182Z,78.00
2018-01-22T19:51:03.595Z,78.00
2018-01-22T19:53:33.174Z,78.10
2018-01-22T19:56:03.337Z,78.10
2018-01-22T19:58:32.998Z,78.10
2018-01-22T20:01:02.729Z,76.40
2018-01-22T20:03:32.917Z,77.80
2018-01-22T20:06:02.491Z,77.80
2018-01-22T20:08:31.734Z,77.90
2018-01-22T20:11:01.758Z,77.60
2018-01-22T20:13:31.880Z,77.30
2018-01-22T20:16:01.484Z,77.30
2018-01-22T20:18:30.773Z,77.10
2018-01-22T20:21:00.206Z,76.80
2018-01-22T20:23:29.674Z,76.80
2018-01-22T20:25:59.368Z,77.00
2018-01-22T20:28:29.089Z,77.30
2018-01-22T20:30:58.322Z,77.40
2018-01-22T20:33:27.794Z,77.30
2018-01-22T20:35:57.096Z,77.20
2018-01-22T20:38:26.704Z,76.70
2018-01-22T20:40:56.316Z,76.30
2018-01-22T20:43:25.643Z,76.10
2018-01-22T20:45:55.329Z,75.70
2018-01-22T20:48:24.721Z,75.40
2018-01-22T20:50:54.552Z,75.90
2018-01-22T20:53:24.033Z,76.00
2018-01-22T20:55:54.009Z,76.10
2018-01-22T20:58:23.639Z,76.10
2018-01-22T21:00:54.590Z,76.30
2018-01-22T21:03:24.174Z,76.10
2018-01-22T21:05:53.832Z,75.00
2018-01-22T21:08:23.993Z,75.00
2018-01-22T21:10:53.716Z,75.30
2018-01-22T21:13:23.901Z,75.20
2018-01-22T21:15:53.217Z,75.20
2018-01-22T21:18:24.458Z,74.90
2018-01-22T21:20:54.543Z,74.90
2018-01-22T21:23:25.108Z,75.00
2018-01-22T21:25:54.622Z,75.00
2018-01-22T21:28:24.640Z,74.70
2018-01-22T21:30:54.017Z,74.70
2018-01-22T21:33:25.255Z,74.20
2018-01-22T21:35:54.734Z,74.20
2018-01-22T21:38:24.018Z,74.50
2018-01-22T21:40:55.131Z,74.00
2018-01-22T21:43:24.752Z,74.00
2018-01-22T21:45:55.126Z,74.50
2018-01-22T21:48:24.559Z,74.50
2018-01-22T21:50:53.983Z,74.20
2018-01-22T21:53:23.714Z,73.40
2018-01-22T21:55:53.435Z,73.40
2018-01-22T21:58:22.661Z,73.40
2018-01-22T22:00:52.413Z,73.10
2018-01-22T22:03:23.097Z,73.00
2018-01-22T22:05:52.585Z,73.30
2018-01-22T22:08:22.391Z,73.30
2018-01-22T22:10:52.204Z,73.40
2018-01-22T22:13:21.776Z,73.40
2018-01-22T22:15:51.194Z,73.70
2018-01-22T22:18:20.623Z,73.20
2018-01-22T22:20:50.806Z,72.80
2018-01-22T22:23:20.541Z,73.10
2018-01-22T22:25:50.094Z,73.00
2018-01-22T22:28:19.350Z,72.80
2018-01-22T22:30:48.782Z,72.70
2018-01-22T22:33:18.426Z,72.70
2018-01-22T22:35:49.126Z,72.70
2018-01-22T22:38:18.374Z,72.70
2018-01-22T22:40:48.259Z,72.30
2018-01-22T22:43:18.319Z,72.20
2018-01-22T22:45:47.709Z,72.20
2018-01-22T22:48:17.456Z,72.00
2018-01-22T22:50:46.866Z,72.10
2018-01-22T22:53:16.384Z,72.20
2018-01-22T22:55:46.224Z,71.90
2018-01-22T22:58:16.365Z,72.10
2018-01-22T23:00:46.054Z,72.10
2018-01-22T23:03:15.416Z,72.20
2018-01-22T23:05:44.858Z,72.00
2018-01-22T23:08:15.874Z,72.40
2018-01-22T23:10:45.438Z,72.40
2018-01-22T23:13:15.292Z,72.20
2018-01-22T23:15:44.845Z,72.20
2018-01-22T23:18:15.086Z,72.80
2018-01-22T23:20:44.897Z,73.00
2018-01-22T23:23:14.717Z,73.20
2018-01-22T23:25:44.323Z,73.20
2018-01-22T23:28:14.079Z,73.50
2018-01-22T23:30:43.527Z,73.50
2018-01-22T23:33:13.136Z,73.50
2018-01-22T23:35:43.024Z,73.20
2018-01-22T23:38:12.739Z,73.20
2018-01-22T23:40:42.597Z,73.10
2018-01-22T23:43:12.438Z,73.40
2018-01-22T23:45:41.971Z,73.40
2018-01-22T23:48:12.625Z,73.10
2018-01-22T23:50:42.499Z,73.30
2018-01-22T23:53:13.260Z,72.90
2018-01-22T23:55:42.904Z,72.90
2018-01-22T23:58:12.732Z,73.10
